Sunday, June 17, 2018, 10:02 PM EDT
Back to Local

KPWM, Portland International Jetport

Location: Portland, ME, United States Lat: 43.65
Local Time: 10:02 PM EDT ( 2:02 GMT) Lon: -70.3
Time Zone: US/Eastern Elev: 75 ft

Show me the last for .
Show Decoded

2018-06-17 21:51 METAR KPWM 180151Z 10003KT 10SM CLR 13/12 A3006 RMK AO2 SLP180 T01280122 =
2018-06-17 20:51 METAR KPWM 180051Z 11004KT 10SM FEW030 SCT200 13/12 A3007 RMK AO2 SLP182
                 T01280117 =
2018-06-17 19:51 METAR KPWM 172351Z 10007KT 10SM SCT030 SCT200 13/12 A3009 RMK AO2 SLP189
                 T01330117 10183 20133 56007 =
2018-06-17 18:51 METAR KPWM 172251Z 09009KT 10SM FEW050 SCT250 14/12 A3009 RMK AO2 SLP190
                 T01440117 =
2018-06-17 17:51 METAR KPWM 172151Z 09010G17KT 10SM SCT250 15/12 A3010 RMK AO2 SLP194 T01500122 =
2018-06-17 16:51 METAR KPWM 172051Z 09009KT 10SM SCT250 16/12 A3011 RMK AO2 SLP196 T01610122
                 53001 =
2018-06-17 15:51 METAR KPWM 171951Z 09009KT 10SM SCT250 17/12 A3010 RMK AO2 SLP194 T01720122 =
2018-06-17 14:51 METAR KPWM 171851Z 09011KT 10SM SCT250 17/12 A3010 RMK AO2 SLP193 T01720122 =
2018-06-17 13:51 METAR KPWM 171751Z 09010KT 10SM SCT250 18/12 A3011 RMK AO2 SLP195 T01830117
                 10206 20172 55000 =
2018-06-17 12:51 METAR KPWM 171651Z 10009G17KT 10SM FEW250 19/12 A3010 RMK AO2 SLP191 T01940117 =
2018-06-17 11:51 METAR KPWM 171551Z 08010KT 10SM CLR 20/11 A3010 RMK AO2 SLP194 T02000111 =
2018-06-17 10:51 METAR KPWM 171451Z 09011KT 10SM CLR 19/11 A3011 RMK AO2 SLP195 T01890111 50014 =
2018-06-17 09:51 METAR KPWM 171351Z 09008KT 10SM FEW250 18/11 A3011 RMK AO2 SLP195 T01830111 =
2018-06-17 08:51 METAR KPWM 171251Z 10010KT 10SM FEW150 SCT250 17/12 A3009 RMK AO2 SLP188
                 T01720117 =
2018-06-17 07:51 METAR KPWM 171151Z COR 10009KT 10SM BKN250 19/11 A3007 RMK AO2 SLP181 T01940111
                 10200 20133 53019 =
2018-06-17 06:51 METAR KPWM 171051Z 28003KT 10SM OVC250 17/11 A3004 RMK AO2 SLP173 T01720111 =
2018-06-17 05:51 METAR KPWM 170951Z COR 28004KT 10SM BKN250 14/10 A3003 =
2018-06-17 04:51 METAR KPWM 170851Z VRB03KT 10SM BKN250 14/09 A3001 RMK AO2 SLP162 T01440089
                 51014 =
2018-06-17 03:51 METAR KPWM 170751Z VRB05KT 10SM CLR 15/09 A3000 RMK AO2 SLP158 T01500094 =
2018-06-17 02:51 METAR KPWM 170651Z VRB04KT 10SM CLR 16/10 A2998 RMK AO2 SLP152 T01610100 =
2018-06-17 01:51 METAR KPWM 170551Z VRB05KT 10SM CLR 17/11 A2997 RMK AO2 SLP148 T01670111 10250
                 20167 58004 =
2018-06-17 00:51 METAR KPWM 170451Z 00000KT 10SM CLR 18/11 A2997 RMK AO2 SLP149 T01830106
                 402940106 =
2018-06-16 23:51 METAR KPWM 170351Z 30005KT 10SM CLR 18/10 A2998 RMK AO2 SLP153 LAST T01780100 =
2018-06-16 22:51 METAR KPWM 170251Z 30007KT 10SM CLR 19/10 A2998 RMK AO2 SLP151 T01890100 53022 =

Support USWX by starting your Amazon purchase here.